sensor_id;sensor_type;location;lat;lon;timestamp;P1;P2;P0
64631;PMS5003;58358;50.936;0.246;2022-07-18T00:02:11;13;13;
64631;PMS5003;58358;50.936;0.246;2022-07-18T00:04:37;18;14;
64631;PMS5003;58358;50.936;0.246;2022-07-18T00:07:02;11;11;
64631;PMS5003;58358;50.936;0.246;2022-07-18T00:09:28;15;15;
64631;PMS5003;58358;50.936;0.246;2022-07-18T00:11:54;13;13;
64631;PMS5003;58358;50.936;0.246;2022-07-18T00:14:20;12;12;
64631;PMS5003;58358;50.936;0.246;2022-07-18T00:16:45;14;13;
64631;PMS5003;58358;50.936;0.246;2022-07-18T00:19:10;21;19;
64631;PMS5003;58358;50.936;0.246;2022-07-18T00:21:35;15;15;
64631;PMS5003;58358;50.936;0.246;2022-07-18T00:24:01;13;11;
64631;PMS5003;58358;50.936;0.246;2022-07-18T00:26:26;15;13;
64631;PMS5003;58358;50.936;0.246;2022-07-18T00:28:52;14;13;
64631;PMS5003;58358;50.936;0.246;2022-07-18T00:31:17;13;13;
64631;PMS5003;58358;50.936;0.246;2022-07-18T00:33:43;16;14;
64631;PMS5003;58358;50.936;0.246;2022-07-18T00:36:08;16;13;
64631;PMS5003;58358;50.936;0.246;2022-07-18T00:38:33;15;14;
64631;PMS5003;58358;50.936;0.246;2022-07-18T00:40:59;13;13;
64631;PMS5003;58358;50.936;0.246;2022-07-18T00:43:25;14;14;
64631;PMS5003;58358;50.936;0.246;2022-07-18T00:45:50;13;13;
64631;PMS5003;58358;50.936;0.246;2022-07-18T00:48:15;14;12;
64631;PMS5003;58358;50.936;0.246;2022-07-18T00:50:42;17;15;
64631;PMS5003;58358;50.936;0.246;2022-07-18T00:53:07;15;15;
64631;PMS5003;58358;50.936;0.246;2022-07-18T00:55:32;14;13;
64631;PMS5003;58358;50.936;0.246;2022-07-18T00:57:58;14;14;
64631;PMS5003;58358;50.936;0.246;2022-07-18T01:00:23;18;18;
64631;PMS5003;58358;50.936;0.246;2022-07-18T01:02:48;15;13;
64631;PMS5003;58358;50.936;0.246;2022-07-18T01:05:14;14;11;
64631;PMS5003;58358;50.936;0.246;2022-07-18T01:07:39;16;16;
64631;PMS5003;58358;50.936;0.246;2022-07-18T01:10:05;15;15;
64631;PMS5003;58358;50.936;0.246;2022-07-18T01:12:31;14;14;
64631;PMS5003;58358;50.936;0.246;2022-07-18T01:14:56;16;14;
64631;PMS5003;58358;50.936;0.246;2022-07-18T01:17:21;12;12;
64631;PMS5003;58358;50.936;0.246;2022-07-18T01:19:47;13;13;
64631;PMS5003;58358;50.936;0.246;2022-07-18T01:22:13;13;13;
64631;PMS5003;58358;50.936;0.246;2022-07-18T01:24:39;14;14;
64631;PMS5003;58358;50.936;0.246;2022-07-18T01:27:04;15;14;
64631;PMS5003;58358;50.936;0.246;2022-07-18T01:29:29;14;12;
64631;PMS5003;58358;50.936;0.246;2022-07-18T01:31:55;12;12;
64631;PMS5003;58358;50.936;0.246;2022-07-18T01:34:21;13;13;
64631;PMS5003;58358;50.936;0.246;2022-07-18T01:36:46;17;14;
64631;PMS5003;58358;50.936;0.246;2022-07-18T01:39:12;14;12;
64631;PMS5003;58358;50.936;0.246;2022-07-18T01:41:37;11;10;
64631;PMS5003;58358;50.936;0.246;2022-07-18T01:44:03;13;13;
64631;PMS5003;58358;50.936;0.246;2022-07-18T01:46:28;14;13;
64631;PMS5003;58358;50.936;0.246;2022-07-18T01:48:54;14;14;
64631;PMS5003;58358;50.936;0.246;2022-07-18T01:51:20;12;12;
64631;PMS5003;58358;50.936;0.246;2022-07-18T01:53:52;10;10;
64631;PMS5003;58358;50.936;0.246;2022-07-18T01:56:11;14;13;
64631;PMS5003;58358;50.936;0.246;2022-07-18T01:58:36;14;14;
64631;PMS5003;58358;50.936;0.246;2022-07-18T02:01:02;14;14;
64631;PMS5003;58358;50.936;0.246;2022-07-18T02:03:28;14;13;
64631;PMS5003;58358;50.936;0.246;2022-07-18T02:05:54;15;13;
64631;PMS5003;58358;50.936;0.246;2022-07-18T02:08:19;18;15;
64631;PMS5003;58358;50.936;0.246;2022-07-18T02:10:45;16;13;
64631;PMS5003;58358;50.936;0.246;2022-07-18T02:13:11;13;13;
64631;PMS5003;58358;50.936;0.246;2022-07-18T02:15:37;16;14;
64631;PMS5003;58358;50.936;0.246;2022-07-18T02:18:02;13;13;
64631;PMS5003;58358;50.936;0.246;2022-07-18T02:20:27;15;14;
64631;PMS5003;58358;50.936;0.246;2022-07-18T02:22:53;13;13;
64631;PMS5003;58358;50.936;0.246;2022-07-18T02:25:19;12;12;
64631;PMS5003;58358;50.936;0.246;2022-07-18T02:27:44;11;11;
64631;PMS5003;58358;50.936;0.246;2022-07-18T02:30:10;14;12;
64631;PMS5003;58358;50.936;0.246;2022-07-18T02:32:35;12;11;
64631;PMS5003;58358;50.936;0.246;2022-07-18T02:35:01;12;12;
64631;PMS5003;58358;50.936;0.246;2022-07-18T02:37:27;13;12;
64631;PMS5003;58358;50.936;0.246;2022-07-18T02:39:52;13;12;
64631;PMS5003;58358;50.936;0.246;2022-07-18T02:42:18;13;13;
64631;PMS5003;58358;50.936;0.246;2022-07-18T02:44:43;16;12;
64631;PMS5003;58358;50.936;0.246;2022-07-18T02:47:09;13;13;
64631;PMS5003;58358;50.936;0.246;2022-07-18T02:49:34;13;13;
64631;PMS5003;58358;50.936;0.246;2022-07-18T02:52:02;10;9;
64631;PMS5003;58358;50.936;0.246;2022-07-18T02:54:26;13;13;
64631;PMS5003;58358;50.936;0.246;2022-07-18T02:56:52;14;12;
64631;PMS5003;58358;50.936;0.246;2022-07-18T02:59:17;10;10;
64631;PMS5003;58358;50.936;0.246;2022-07-18T03:01:43;10;10;
64631;PMS5003;58358;50.936;0.246;2022-07-18T03:04:08;13;12;
64631;PMS5003;58358;50.936;0.246;2022-07-18T03:06:34;13;11;
64631;PMS5003;58358;50.936;0.246;2022-07-18T03:09:00;12;11;
64631;PMS5003;58358;50.936;0.246;2022-07-18T03:11:25;11;11;
64631;PMS5003;58358;50.936;0.246;2022-07-18T03:13:51;11;11;
64631;PMS5003;58358;50.936;0.246;2022-07-18T03:16:17;14;14;
64631;PMS5003;58358;50.936;0.246;2022-07-18T03:18:42;10;10;
64631;PMS5003;58358;50.936;0.246;2022-07-18T03:21:08;16;15;
64631;PMS5003;58358;50.936;0.246;2022-07-18T03:23:34;13;13;
64631;PMS5003;58358;50.936;0.246;2022-07-18T03:25:59;14;13;
64631;PMS5003;58358;50.936;0.246;2022-07-18T03:28:24;17;14;
64631;PMS5003;58358;50.936;0.246;2022-07-18T03:30:50;12;12;
64631;PMS5003;58358;50.936;0.246;2022-07-18T03:33:16;14;13;
64631;PMS5003;58358;50.936;0.246;2022-07-18T03:35:41;15;13;
64631;PMS5003;58358;50.936;0.246;2022-07-18T03:38:07;16;14;
64631;PMS5003;58358;50.936;0.246;2022-07-18T03:40:33;14;12;
64631;PMS5003;58358;50.936;0.246;2022-07-18T03:42:58;16;15;
64631;PMS5003;58358;50.936;0.246;2022-07-18T03:45:24;12;12;
64631;PMS5003;58358;50.936;0.246;2022-07-18T03:47:50;13;12;
64631;PMS5003;58358;50.936;0.246;2022-07-18T03:50:15;17;14;
64631;PMS5003;58358;50.936;0.246;2022-07-18T03:52:40;13;13;
64631;PMS5003;58358;50.936;0.246;2022-07-18T03:55:06;16;14;
64631;PMS5003;58358;50.936;0.246;2022-07-18T03:57:32;15;15;
64631;PMS5003;58358;50.936;0.246;2022-07-18T03:59:57;12;12;
64631;PMS5003;58358;50.936;0.246;2022-07-18T04:02:23;10;10;
64631;PMS5003;58358;50.936;0.246;2022-07-18T04:04:49;10;10;
64631;PMS5003;58358;50.936;0.246;2022-07-18T04:07:14;17;16;
64631;PMS5003;58358;50.936;0.246;2022-07-18T04:09:40;14;13;
64631;PMS5003;58358;50.936;0.246;2022-07-18T04:12:06;14;14;
64631;PMS5003;58358;50.936;0.246;2022-07-18T04:14:32;13;12;
64631;PMS5003;58358;50.936;0.246;2022-07-18T04:16:57;13;13;
64631;PMS5003;58358;50.936;0.246;2022-07-18T04:19:23;18;16;
64631;PMS5003;58358;50.936;0.246;2022-07-18T04:21:49;13;12;
64631;PMS5003;58358;50.936;0.246;2022-07-18T04:24:14;15;15;
64631;PMS5003;58358;50.936;0.246;2022-07-18T04:26:40;17;17;
64631;PMS5003;58358;50.936;0.246;2022-07-18T04:29:05;18;17;
64631;PMS5003;58358;50.936;0.246;2022-07-18T04:31:31;15;14;
64631;PMS5003;58358;50.936;0.246;2022-07-18T04:33:57;18;17;
64631;PMS5003;58358;50.936;0.246;2022-07-18T04:36:22;17;17;
64631;PMS5003;58358;50.936;0.246;2022-07-18T04:38:48;19;18;
64631;PMS5003;58358;50.936;0.246;2022-07-18T04:41:13;18;18;
64631;PMS5003;58358;50.936;0.246;2022-07-18T04:43:39;23;22;
64631;PMS5003;58358;50.936;0.246;2022-07-18T04:46:04;20;18;
64631;PMS5003;58358;50.936;0.246;2022-07-18T04:48:30;17;17;
64631;PMS5003;58358;50.936;0.246;2022-07-18T04:50:56;20;19;
64631;PMS5003;58358;50.936;0.246;2022-07-18T04:53:21;24;21;
64631;PMS5003;58358;50.936;0.246;2022-07-18T04:55:47;27;23;
64631;PMS5003;58358;50.936;0.246;2022-07-18T04:58:12;29;28;
64631;PMS5003;58358;50.936;0.246;2022-07-18T05:00:38;23;21;
64631;PMS5003;58358;50.936;0.246;2022-07-18T05:03:03;20;20;
64631;PMS5003;58358;50.936;0.246;2022-07-18T05:05:28;21;21;
64631;PMS5003;58358;50.936;0.246;2022-07-18T05:07:54;24;22;
64631;PMS5003;58358;50.936;0.246;2022-07-18T05:10:20;27;24;
64631;PMS5003;58358;50.936;0.246;2022-07-18T05:12:45;25;25;
64631;PMS5003;58358;50.936;0.246;2022-07-18T05:15:11;28;28;
64631;PMS5003;58358;50.936;0.246;2022-07-18T05:17:36;26;26;
64631;PMS5003;58358;50.936;0.246;2022-07-18T05:20:01;27;25;
64631;PMS5003;58358;50.936;0.246;2022-07-18T05:22:27;31;28;
64631;PMS5003;58358;50.936;0.246;2022-07-18T05:24:52;27;25;
64631;PMS5003;58358;50.936;0.246;2022-07-18T05:27:18;28;26;
64631;PMS5003;58358;50.936;0.246;2022-07-18T05:29:43;27;26;
64631;PMS5003;58358;50.936;0.246;2022-07-18T05:32:09;27;25;
64631;PMS5003;58358;50.936;0.246;2022-07-18T05:34:34;27;25;
64631;PMS5003;58358;50.936;0.246;2022-07-18T05:37:00;34;32;
64631;PMS5003;58358;50.936;0.246;2022-07-18T05:39:26;26;26;
64631;PMS5003;58358;50.936;0.246;2022-07-18T05:41:52;28;28;
64631;PMS5003;58358;50.936;0.246;2022-07-18T05:44:17;32;31;
64631;PMS5003;58358;50.936;0.246;2022-07-18T05:46:43;31;28;
64631;PMS5003;58358;50.936;0.246;2022-07-18T05:49:08;30;28;
64631;PMS5003;58358;50.936;0.246;2022-07-18T05:51:33;29;25;
64631;PMS5003;58358;50.936;0.246;2022-07-18T05:53:59;29;28;
64631;PMS5003;58358;50.936;0.246;2022-07-18T05:56:24;29;27;
64631;PMS5003;58358;50.936;0.246;2022-07-18T05:58:49;27;25;
64631;PMS5003;58358;50.936;0.246;2022-07-18T06:01:15;27;25;
64631;PMS5003;58358;50.936;0.246;2022-07-18T06:03:40;26;25;
64631;PMS5003;58358;50.936;0.246;2022-07-18T06:06:06;28;26;
64631;PMS5003;58358;50.936;0.246;2022-07-18T06:08:31;27;25;
64631;PMS5003;58358;50.936;0.246;2022-07-18T06:10:57;24;23;
64631;PMS5003;58358;50.936;0.246;2022-07-18T06:13:22;29;27;
64631;PMS5003;58358;50.936;0.246;2022-07-18T06:15:47;21;21;
64631;PMS5003;58358;50.936;0.246;2022-07-18T06:18:13;22;22;
64631;PMS5003;58358;50.936;0.246;2022-07-18T06:20:39;29;28;
64631;PMS5003;58358;50.936;0.246;2022-07-18T06:23:04;24;22;
64631;PMS5003;58358;50.936;0.246;2022-07-18T06:25:30;20;18;
64631;PMS5003;58358;50.936;0.246;2022-07-18T06:27:55;20;17;
64631;PMS5003;58358;50.936;0.246;2022-07-18T06:30:21;21;20;
64631;PMS5003;58358;50.936;0.246;2022-07-18T06:32:46;21;21;
64631;PMS5003;58358;50.936;0.246;2022-07-18T06:35:11;30;28;
64631;PMS5003;58358;50.936;0.246;2022-07-18T06:37:37;19;18;
64631;PMS5003;58358;50.936;0.246;2022-07-18T06:40:02;16;16;
64631;PMS5003;58358;50.936;0.246;2022-07-18T06:42:27;17;13;
64631;PMS5003;58358;50.936;0.246;2022-07-18T06:44:53;13;13;
64631;PMS5003;58358;50.936;0.246;2022-07-18T06:47:18;12;11;
64631;PMS5003;58358;50.936;0.246;2022-07-18T06:49:44;14;13;
64631;PMS5003;58358;50.936;0.246;2022-07-18T06:52:09;17;17;
64631;PMS5003;58358;50.936;0.246;2022-07-18T06:54:35;10;9;
64631;PMS5003;58358;50.936;0.246;2022-07-18T06:57:01;10;10;
64631;PMS5003;58358;50.936;0.246;2022-07-18T06:59:26;8;8;
64631;PMS5003;58358;50.936;0.246;2022-07-18T07:01:52;10;10;
64631;PMS5003;58358;50.936;0.246;2022-07-18T07:04:17;13;10;
64631;PMS5003;58358;50.936;0.246;2022-07-18T07:06:43;10;9;
64631;PMS5003;58358;50.936;0.246;2022-07-18T07:09:08;8;8;
64631;PMS5003;58358;50.936;0.246;2022-07-18T07:11:34;14;14;
64631;PMS5003;58358;50.936;0.246;2022-07-18T07:13:59;13;13;
64631;PMS5003;58358;50.936;0.246;2022-07-18T07:16:25;7;7;
64631;PMS5003;58358;50.936;0.246;2022-07-18T07:18:50;9;9;
64631;PMS5003;58358;50.936;0.246;2022-07-18T07:21:16;9;9;
64631;PMS5003;58358;50.936;0.246;2022-07-18T07:23:42;9;9;
64631;PMS5003;58358;50.936;0.246;2022-07-18T07:26:07;8;8;
64631;PMS5003;58358;50.936;0.246;2022-07-18T07:28:33;10;10;
64631;PMS5003;58358;50.936;0.246;2022-07-18T07:30:59;10;10;
64631;PMS5003;58358;50.936;0.246;2022-07-18T07:33:24;11;11;
64631;PMS5003;58358;50.936;0.246;2022-07-18T07:35:50;9;9;
64631;PMS5003;58358;50.936;0.246;2022-07-18T07:38:15;10;10;
64631;PMS5003;58358;50.936;0.246;2022-07-18T07:40:41;7;7;
64631;PMS5003;58358;50.936;0.246;2022-07-18T07:43:08;9;8;
64631;PMS5003;58358;50.936;0.246;2022-07-18T07:45:32;13;11;
64631;PMS5003;58358;50.936;0.246;2022-07-18T07:47:57;8;8;
64631;PMS5003;58358;50.936;0.246;2022-07-18T07:50:23;8;8;
64631;PMS5003;58358;50.936;0.246;2022-07-18T07:52:49;12;12;
64631;PMS5003;58358;50.936;0.246;2022-07-18T07:55:14;8;8;
64631;PMS5003;58358;50.936;0.246;2022-07-18T07:57:39;7;7;
64631;PMS5003;58358;50.936;0.246;2022-07-18T08:00:06;9;9;
64631;PMS5003;58358;50.936;0.246;2022-07-18T08:02:31;13;10;
64631;PMS5003;58358;50.936;0.246;2022-07-18T08:04:56;7;6;
64631;PMS5003;58358;50.936;0.246;2022-07-18T08:07:22;5;5;
64631;PMS5003;58358;50.936;0.246;2022-07-18T08:09:47;10;10;
64631;PMS5003;58358;50.936;0.246;2022-07-18T08:12:13;20;17;
64631;PMS5003;58358;50.936;0.246;2022-07-18T08:14:38;10;8;
64631;PMS5003;58358;50.936;0.246;2022-07-18T08:17:04;16;16;
64631;PMS5003;58358;50.936;0.246;2022-07-18T08:19:30;10;9;
64631;PMS5003;58358;50.936;0.246;2022-07-18T08:21:56;31;31;
64631;PMS5003;58358;50.936;0.246;2022-07-18T08:24:21;10;10;
64631;PMS5003;58358;50.936;0.246;2022-07-18T08:26:47;8;8;
64631;PMS5003;58358;50.936;0.246;2022-07-18T08:29:13;10;10;
64631;PMS5003;58358;50.936;0.246;2022-07-18T08:31:38;26;25;
64631;PMS5003;58358;50.936;0.246;2022-07-18T08:34:04;10;10;
64631;PMS5003;58358;50.936;0.246;2022-07-18T08:36:29;8;8;
64631;PMS5003;58358;50.936;0.246;2022-07-18T08:38:55;10;10;
64631;PMS5003;58358;50.936;0.246;2022-07-18T08:41:21;10;9;
64631;PMS5003;58358;50.936;0.246;2022-07-18T08:43:46;10;9;
64631;PMS5003;58358;50.936;0.246;2022-07-18T08:46:12;9;9;
64631;PMS5003;58358;50.936;0.246;2022-07-18T08:48:37;10;7;
64631;PMS5003;58358;50.936;0.246;2022-07-18T08:51:03;8;8;
64631;PMS5003;58358;50.936;0.246;2022-07-18T08:53:28;13;12;
64631;PMS5003;58358;50.936;0.246;2022-07-18T08:55:54;13;13;
64631;PMS5003;58358;50.936;0.246;2022-07-18T08:58:20;14;14;
64631;PMS5003;58358;50.936;0.246;2022-07-18T09:00:46;11;11;
64631;PMS5003;58358;50.936;0.246;2022-07-18T09:03:11;12;12;
64631;PMS5003;58358;50.936;0.246;2022-07-18T09:05:36;9;9;
64631;PMS5003;58358;50.936;0.246;2022-07-18T09:08:08;11;10;
64631;PMS5003;58358;50.936;0.246;2022-07-18T09:10:29;11;9;
64631;PMS5003;58358;50.936;0.246;2022-07-18T09:12:56;12;9;
64631;PMS5003;58358;50.936;0.246;2022-07-18T09:15:18;9;9;
64631;PMS5003;58358;50.936;0.246;2022-07-18T09:17:44;12;9;
64631;PMS5003;58358;50.936;0.246;2022-07-18T09:20:11;10;10;
64631;PMS5003;58358;50.936;0.246;2022-07-18T09:22:36;9;9;
64631;PMS5003;58358;50.936;0.246;2022-07-18T09:25:02;9;9;
64631;PMS5003;58358;50.936;0.246;2022-07-18T09:27:27;15;13;
64631;PMS5003;58358;50.936;0.246;2022-07-18T09:32:21;7;7;
64631;PMS5003;58358;50.936;0.246;2022-07-18T09:34:43;7;7;
64631;PMS5003;58358;50.936;0.246;2022-07-18T09:37:10;9;9;
64631;PMS5003;58358;50.936;0.246;2022-07-18T09:39:34;14;12;
64631;PMS5003;58358;50.936;0.246;2022-07-18T09:44:25;9;9;
64631;PMS5003;58358;50.936;0.246;2022-07-18T09:46:59;9;9;
64631;PMS5003;58358;50.936;0.246;2022-07-18T09:49:16;11;11;
64631;PMS5003;58358;50.936;0.246;2022-07-18T09:54:07;8;8;
64631;PMS5003;58358;50.936;0.246;2022-07-18T09:56:33;7;7;
64631;PMS5003;58358;50.936;0.246;2022-07-18T09:58:58;8;8;
64631;PMS5003;58358;50.936;0.246;2022-07-18T10:01:23;11;11;
64631;PMS5003;58358;50.936;0.246;2022-07-18T10:03:49;7;7;
64631;PMS5003;58358;50.936;0.246;2022-07-18T10:06:15;7;7;
64631;PMS5003;58358;50.936;0.246;2022-07-18T10:08:40;8;7;
64631;PMS5003;58358;50.936;0.246;2022-07-18T10:11:06;10;10;
64631;PMS5003;58358;50.936;0.246;2022-07-18T10:13:32;8;8;
64631;PMS5003;58358;50.936;0.246;2022-07-18T10:15:57;8;8;
64631;PMS5003;58358;50.936;0.246;2022-07-18T10:18:23;10;8;
64631;PMS5003;58358;50.936;0.246;2022-07-18T10:20:48;7;7;
64631;PMS5003;58358;50.936;0.246;2022-07-18T10:23:15;9;9;
64631;PMS5003;58358;50.936;0.246;2022-07-18T10:25:38;5;5;
64631;PMS5003;58358;50.936;0.246;2022-07-18T10:28:05;9;9;
64631;PMS5003;58358;50.936;0.246;2022-07-18T10:30:31;10;9;
64631;PMS5003;58358;50.936;0.246;2022-07-18T10:32:55;10;9;
64631;PMS5003;58358;50.936;0.246;2022-07-18T10:35:21;6;6;
64631;PMS5003;58358;50.936;0.246;2022-07-18T10:37:46;8;8;
64631;PMS5003;58358;50.936;0.246;2022-07-18T10:40:23;7;7;
64631;PMS5003;58358;50.936;0.246;2022-07-18T10:42:37;10;8;
64631;PMS5003;58358;50.936;0.246;2022-07-18T10:45:04;11;10;
64631;PMS5003;58358;50.936;0.246;2022-07-18T10:47:28;9;9;
64631;PMS5003;58358;50.936;0.246;2022-07-18T10:50:01;7;7;
64631;PMS5003;58358;50.936;0.246;2022-07-18T10:54:46;8;8;
64631;PMS5003;58358;50.936;0.246;2022-07-18T10:57:10;10;10;
64631;PMS5003;58358;50.936;0.246;2022-07-18T10:59:37;7;7;
64631;PMS5003;58358;50.936;0.246;2022-07-18T11:02:03;9;9;
64631;PMS5003;58358;50.936;0.246;2022-07-18T11:04:27;8;8;
64631;PMS5003;58358;50.936;0.246;2022-07-18T11:06:53;8;8;
64631;PMS5003;58358;50.936;0.246;2022-07-18T11:14:09;9;9;
64631;PMS5003;58358;50.936;0.246;2022-07-18T11:16:34;9;9;
64631;PMS5003;58358;50.936;0.246;2022-07-18T11:21:26;9;9;
64631;PMS5003;58358;50.936;0.246;2022-07-18T11:23:51;8;7;
64631;PMS5003;58358;50.936;0.246;2022-07-18T11:26:17;8;8;
64631;PMS5003;58358;50.936;0.246;2022-07-18T11:28:42;9;9;
64631;PMS5003;58358;50.936;0.246;2022-07-18T11:31:08;9;9;
64631;PMS5003;58358;50.936;0.246;2022-07-18T11:33:34;9;9;
64631;PMS5003;58358;50.936;0.246;2022-07-18T11:36:02;7;7;
64631;PMS5003;58358;50.936;0.246;2022-07-18T11:38:24;7;7;
64631;PMS5003;58358;50.936;0.246;2022-07-18T11:40:50;8;8;
64631;PMS5003;58358;50.936;0.246;2022-07-18T11:43:21;8;8;
64631;PMS5003;58358;50.936;0.246;2022-07-18T11:45:41;9;9;
64631;PMS5003;58358;50.936;0.246;2022-07-18T11:48:06;10;8;
64631;PMS5003;58358;50.936;0.246;2022-07-18T11:50:35;9;9;
64631;PMS5003;58358;50.936;0.246;2022-07-18T11:52:57;8;7;
64631;PMS5003;58358;50.936;0.246;2022-07-18T11:57:48;8;8;
64631;PMS5003;58358;50.936;0.246;2022-07-18T12:00:15;8;8;
64631;PMS5003;58358;50.936;0.246;2022-07-18T12:05:05;8;8;
64631;PMS5003;58358;50.936;0.246;2022-07-18T12:07:30;5;5;
64631;PMS5003;58358;50.936;0.246;2022-07-18T12:09:56;7;7;
64631;PMS5003;58358;50.936;0.246;2022-07-18T12:12:21;8;7;
64631;PMS5003;58358;50.936;0.246;2022-07-18T12:14:53;6;6;
64631;PMS5003;58358;50.936;0.246;2022-07-18T12:17:12;8;8;
64631;PMS5003;58358;50.936;0.246;2022-07-18T12:19:38;8;8;
64631;PMS5003;58358;50.936;0.246;2022-07-18T12:22:05;9;9;
64631;PMS5003;58358;50.936;0.246;2022-07-18T12:24:29;6;6;
64631;PMS5003;58358;50.936;0.246;2022-07-18T12:29:20;6;6;
64631;PMS5003;58358;50.936;0.246;2022-07-18T12:31:45;7;7;
64631;PMS5003;58358;50.936;0.246;2022-07-18T12:34:11;7;7;
64631;PMS5003;58358;50.936;0.246;2022-07-18T12:39:02;10;8;
64631;PMS5003;58358;50.936;0.246;2022-07-18T12:41:27;7;7;
64631;PMS5003;58358;50.936;0.246;2022-07-18T12:43:53;7;7;
64631;PMS5003;58358;50.936;0.246;2022-07-18T12:46:18;8;7;
64631;PMS5003;58358;50.936;0.246;2022-07-18T12:48:44;9;9;
64631;PMS5003;58358;50.936;0.246;2022-07-18T12:51:10;6;6;
64631;PMS5003;58358;50.936;0.246;2022-07-18T12:53:35;6;6;
64631;PMS5003;58358;50.936;0.246;2022-07-18T12:56:00;6;6;
64631;PMS5003;58358;50.936;0.246;2022-07-18T12:58:26;7;7;
64631;PMS5003;58358;50.936;0.246;2022-07-18T13:00:51;6;6;
64631;PMS5003;58358;50.936;0.246;2022-07-18T13:03:17;6;6;
64631;PMS5003;58358;50.936;0.246;2022-07-18T13:08:08;9;8;
64631;PMS5003;58358;50.936;0.246;2022-07-18T13:10:33;8;8;
64631;PMS5003;58358;50.936;0.246;2022-07-18T13:13:00;6;6;
64631;PMS5003;58358;50.936;0.246;2022-07-18T13:15:24;5;5;
64631;PMS5003;58358;50.936;0.246;2022-07-18T13:17:50;7;7;
64631;PMS5003;58358;50.936;0.246;2022-07-18T13:20:15;5;5;
64631;PMS5003;58358;50.936;0.246;2022-07-18T13:22:41;7;7;
64631;PMS5003;58358;50.936;0.246;2022-07-18T13:25:07;6;6;
64631;PMS5003;58358;50.936;0.246;2022-07-18T13:27:32;6;6;
64631;PMS5003;58358;50.936;0.246;2022-07-18T13:29:58;5;5;
64631;PMS5003;58358;50.936;0.246;2022-07-18T13:32:23;7;7;
64631;PMS5003;58358;50.936;0.246;2022-07-18T13:34:48;6;6;
64631;PMS5003;58358;50.936;0.246;2022-07-18T13:37:14;8;8;
64631;PMS5003;58358;50.936;0.246;2022-07-18T13:39:39;6;6;
64631;PMS5003;58358;50.936;0.246;2022-07-18T13:42:05;7;7;
64631;PMS5003;58358;50.936;0.246;2022-07-18T13:44:30;6;6;
64631;PMS5003;58358;50.936;0.246;2022-07-18T13:46:56;6;6;
64631;PMS5003;58358;50.936;0.246;2022-07-18T13:49:21;5;5;
64631;PMS5003;58358;50.936;0.246;2022-07-18T13:51:47;5;5;
64631;PMS5003;58358;50.936;0.246;2022-07-18T13:54:12;5;5;
64631;PMS5003;58358;50.936;0.246;2022-07-18T13:56:38;5;5;
64631;PMS5003;58358;50.936;0.246;2022-07-18T13:59:03;5;5;
64631;PMS5003;58358;50.936;0.246;2022-07-18T14:01:29;5;5;
64631;PMS5003;58358;50.936;0.246;2022-07-18T14:03:54;5;5;
64631;PMS5003;58358;50.936;0.246;2022-07-18T14:06:20;6;6;
64631;PMS5003;58358;50.936;0.246;2022-07-18T14:08:45;7;5;
64631;PMS5003;58358;50.936;0.246;2022-07-18T14:11:10;4;4;
64631;PMS5003;58358;50.936;0.246;2022-07-18T14:13:36;5;5;
64631;PMS5003;58358;50.936;0.246;2022-07-18T14:16:01;7;7;
64631;PMS5003;58358;50.936;0.246;2022-07-18T14:18:32;6;6;
64631;PMS5003;58358;50.936;0.246;2022-07-18T14:20:52;5;5;
64631;PMS5003;58358;50.936;0.246;2022-07-18T14:23:18;5;5;
64631;PMS5003;58358;50.936;0.246;2022-07-18T14:25:43;9;9;
64631;PMS5003;58358;50.936;0.246;2022-07-18T14:28:09;6;6;
64631;PMS5003;58358;50.936;0.246;2022-07-18T14:30:34;5;5;
64631;PMS5003;58358;50.936;0.246;2022-07-18T14:33:00;3;3;
64631;PMS5003;58358;50.936;0.246;2022-07-18T14:35:25;4;4;
64631;PMS5003;58358;50.936;0.246;2022-07-18T14:37:52;5;5;
64631;PMS5003;58358;50.936;0.246;2022-07-18T14:40:16;7;4;
64631;PMS5003;58358;50.936;0.246;2022-07-18T14:42:42;4;4;
64631;PMS5003;58358;50.936;0.246;2022-07-18T14:45:07;5;5;
64631;PMS5003;58358;50.936;0.246;2022-07-18T14:47:32;4;4;
64631;PMS5003;58358;50.936;0.246;2022-07-18T14:49:58;4;4;
64631;PMS5003;58358;50.936;0.246;2022-07-18T14:52:23;5;5;
64631;PMS5003;58358;50.936;0.246;2022-07-18T14:54:49;5;5;
64631;PMS5003;58358;50.936;0.246;2022-07-18T14:57:14;5;5;
64631;PMS5003;58358;50.936;0.246;2022-07-18T14:59:39;6;6;
64631;PMS5003;58358;50.936;0.246;2022-07-18T15:02:05;5;5;
64631;PMS5003;58358;50.936;0.246;2022-07-18T15:04:31;3;3;
64631;PMS5003;58358;50.936;0.246;2022-07-18T15:06:57;5;5;
64631;PMS5003;58358;50.936;0.246;2022-07-18T15:09:21;5;5;
64631;PMS5003;58358;50.936;0.246;2022-07-18T15:11:49;4;4;
64631;PMS5003;58358;50.936;0.246;2022-07-18T15:14:12;3;3;
64631;PMS5003;58358;50.936;0.246;2022-07-18T15:16:37;6;6;
64631;PMS5003;58358;50.936;0.246;2022-07-18T15:19:03;5;5;
64631;PMS5003;58358;50.936;0.246;2022-07-18T15:21:28;4;4;
64631;PMS5003;58358;50.936;0.246;2022-07-18T15:23:59;6;6;
64631;PMS5003;58358;50.936;0.246;2022-07-18T15:26:19;6;5;
64631;PMS5003;58358;50.936;0.246;2022-07-18T15:28:47;4;4;
64631;PMS5003;58358;50.936;0.246;2022-07-18T15:31:10;5;5;
64631;PMS5003;58358;50.936;0.246;2022-07-18T15:33:36;4;4;
64631;PMS5003;58358;50.936;0.246;2022-07-18T15:36:01;7;6;
64631;PMS5003;58358;50.936;0.246;2022-07-18T15:38:27;5;5;
64631;PMS5003;58358;50.936;0.246;2022-07-18T15:40:52;6;6;
64631;PMS5003;58358;50.936;0.246;2022-07-18T15:43:18;5;5;
64631;PMS5003;58358;50.936;0.246;2022-07-18T15:45:43;5;5;
64631;PMS5003;58358;50.936;0.246;2022-07-18T15:48:09;5;5;
64631;PMS5003;58358;50.936;0.246;2022-07-18T15:50:34;5;5;
64631;PMS5003;58358;50.936;0.246;2022-07-18T15:53:00;5;5;
64631;PMS5003;58358;50.936;0.246;2022-07-18T15:55:26;4;4;
64631;PMS5003;58358;50.936;0.246;2022-07-18T15:57:51;7;5;
64631;PMS5003;58358;50.936;0.246;2022-07-18T16:00:16;10;10;
64631;PMS5003;58358;50.936;0.246;2022-07-18T16:02:42;6;6;
64631;PMS5003;58358;50.936;0.246;2022-07-18T16:05:08;5;5;
64631;PMS5003;58358;50.936;0.246;2022-07-18T16:07:33;5;5;
64631;PMS5003;58358;50.936;0.246;2022-07-18T16:09:58;5;5;
64631;PMS5003;58358;50.936;0.246;2022-07-18T16:12:24;6;6;
64631;PMS5003;58358;50.936;0.246;2022-07-18T16:14:49;8;5;
64631;PMS5003;58358;50.936;0.246;2022-07-18T16:17:15;4;4;
64631;PMS5003;58358;50.936;0.246;2022-07-18T16:19:40;9;6;
64631;PMS5003;58358;50.936;0.246;2022-07-18T16:22:06;5;5;
64631;PMS5003;58358;50.936;0.246;2022-07-18T16:24:31;9;7;
64631;PMS5003;58358;50.936;0.246;2022-07-18T16:26:57;7;6;
64631;PMS5003;58358;50.936;0.246;2022-07-18T16:29:22;6;6;
64631;PMS5003;58358;50.936;0.246;2022-07-18T16:31:48;5;5;
64631;PMS5003;58358;50.936;0.246;2022-07-18T16:34:13;5;5;
64631;PMS5003;58358;50.936;0.246;2022-07-18T16:36:38;5;5;
64631;PMS5003;58358;50.936;0.246;2022-07-18T16:39:04;6;6;
64631;PMS5003;58358;50.936;0.246;2022-07-18T16:41:29;4;4;
64631;PMS5003;58358;50.936;0.246;2022-07-18T16:43:55;6;4;
64631;PMS5003;58358;50.936;0.246;2022-07-18T16:46:20;3;3;
64631;PMS5003;58358;50.936;0.246;2022-07-18T16:48:46;5;5;
64631;PMS5003;58358;50.936;0.246;2022-07-18T16:51:11;5;5;